createdAt,value
2019-05-01T00:01:34.162Z,20.97
2019-05-01T00:04:12.870Z,23.00
2019-05-01T00:06:45.236Z,20.70
2019-05-01T00:09:15.008Z,21.70
2019-05-01T00:11:44.940Z,23.80
2019-05-01T00:14:17.357Z,20.37
2019-05-01T00:16:46.871Z,24.60
2019-05-01T00:19:16.624Z,21.30
2019-05-01T00:21:46.402Z,23.37
2019-05-01T00:24:15.790Z,20.77
2019-05-01T00:26:45.411Z,26.00
2019-05-01T00:29:15.781Z,29.43
2019-05-01T00:31:45.032Z,25.20
2019-05-01T00:34:14.464Z,22.30
2019-05-01T00:36:44.283Z,24.73
2019-05-01T00:39:14.162Z,24.20
2019-05-01T00:41:43.434Z,22.60
2019-05-01T00:44:13.187Z,22.33
2019-05-01T00:46:42.810Z,24.93
2019-05-01T00:49:12.788Z,26.67
2019-05-01T00:51:42.618Z,28.83
2019-05-01T00:54:12.276Z,27.27
2019-05-01T00:56:52.890Z,25.73
2019-05-01T00:59:41.481Z,25.00
2019-05-01T01:02:35.861Z,27.33
2019-05-01T01:05:08.125Z,27.73
2019-05-01T01:07:37.393Z,25.53
2019-05-01T01:10:07.478Z,24.33
2019-05-01T01:12:36.781Z,25.30
2019-05-01T01:15:06.511Z,26.53
2019-05-01T01:17:36.189Z,22.70
2019-05-01T01:20:06.330Z,28.60
2019-05-01T01:22:36.352Z,26.10
2019-05-01T01:25:07.439Z,33.03
2019-05-01T01:27:36.801Z,26.27
2019-05-01T01:30:07.150Z,28.37
2019-05-01T01:32:37.540Z,29.03
2019-05-01T01:35:07.376Z,25.50
2019-05-01T01:37:37.388Z,29.77
2019-05-01T01:40:07.171Z,29.30
2019-05-01T01:42:37.517Z,32.83
2019-05-01T01:45:24.806Z,25.87
2019-05-01T01:48:11.436Z,29.53
2019-05-01T01:50:42.342Z,32.53
2019-05-01T01:53:15.363Z,30.53
2019-05-01T01:55:46.625Z,27.93
2019-05-01T01:58:17.368Z,30.93
2019-05-01T02:01:08.469Z,30.57
2019-05-01T02:03:29.654Z,29.30
2019-05-01T02:05:58.945Z,29.63
2019-05-01T02:08:28.198Z,32.37
2019-05-01T02:10:57.606Z,34.97
2019-05-01T02:13:27.262Z,37.93
2019-05-01T02:15:56.581Z,31.37
2019-05-01T02:18:25.905Z,30.40
2019-05-01T02:20:55.267Z,34.83
2019-05-01T02:23:25.245Z,32.50
2019-05-01T02:25:55.292Z,31.97
2019-05-01T02:28:42.693Z,38.13
2019-05-01T02:31:28.087Z,37.97
2019-05-01T02:33:58.598Z,34.67
2019-05-01T02:36:30.039Z,30.57
2019-05-01T02:39:01.238Z,34.80
2019-05-01T02:41:35.573Z,34.27
2019-05-01T02:44:16.100Z,36.43
2019-05-01T02:46:51.447Z,34.27
2019-05-01T02:49:31.332Z,45.23
2019-05-01T02:52:01.203Z,33.93
2019-05-01T02:54:31.763Z,33.43
2019-05-01T02:57:06.443Z,51.00
2019-05-01T02:59:39.507Z,35.50
2019-05-01T03:02:12.686Z,40.67
2019-05-01T03:04:46.327Z,33.07
2019-05-01T03:07:19.911Z,35.50
2019-05-01T03:09:54.325Z,32.23
2019-05-01T03:12:30.438Z,40.27
2019-05-01T03:15:06.832Z,39.03
2019-05-01T03:18:03.881Z,34.20
2019-05-01T03:21:07.186Z,33.00
2019-05-01T03:23:49.607Z,34.60
2019-05-01T03:26:24.219Z,35.93
2019-05-01T03:28:56.138Z,32.80
2019-05-01T03:31:26.829Z,37.53
2019-05-01T03:33:58.260Z,36.73
2019-05-01T03:36:30.344Z,37.83
2019-05-01T03:39:02.007Z,34.77
2019-05-01T03:41:34.125Z,35.17
2019-05-01T03:44:07.044Z,35.93
2019-05-01T03:46:38.136Z,35.47
2019-05-01T03:49:10.546Z,35.00
2019-05-01T03:51:42.294Z,38.07
2019-05-01T03:54:13.291Z,36.97
2019-05-01T03:56:43.199Z,32.93
2019-05-01T03:59:13.278Z,33.47
2019-05-01T04:01:55.939Z,35.60
2019-05-01T04:04:28.272Z,35.20
2019-05-01T04:06:57.747Z,41.73
2019-05-01T04:09:27.396Z,34.80
2019-05-01T04:11:57.278Z,34.97
2019-05-01T04:14:27.974Z,30.63
2019-05-01T04:17:19.470Z,34.60
2019-05-01T04:19:50.472Z,36.80
2019-05-01T04:22:21.148Z,37.43
2019-05-01T04:24:51.009Z,36.47
2019-05-01T04:27:26.555Z,33.37
2019-05-01T04:30:17.904Z,33.00
2019-05-01T04:32:52.673Z,33.13
2019-05-01T04:35:38.212Z,32.23
2019-05-01T04:38:08.180Z,34.70
2019-05-01T04:40:37.816Z,33.23
2019-05-01T04:43:07.078Z,31.20
2019-05-01T04:45:40.808Z,34.10
2019-05-01T04:48:13.739Z,32.23
2019-05-01T04:50:43.119Z,35.40
2019-05-01T04:53:13.193Z,33.33
2019-05-01T04:55:43.569Z,37.80
2019-05-01T04:58:13.962Z,37.77
2019-05-01T05:00:43.895Z,34.03
2019-05-01T05:03:17.657Z,33.13
2019-05-01T05:05:47.879Z,37.17
2019-05-01T05:08:17.363Z,39.10
2019-05-01T05:10:48.159Z,35.40
2019-05-01T05:13:23.132Z,32.23
2019-05-01T05:15:58.866Z,36.40
2019-05-01T05:18:29.117Z,33.77
2019-05-01T05:20:59.966Z,35.17
2019-05-01T05:23:29.850Z,33.83
2019-05-01T05:26:00.098Z,32.63
2019-05-01T05:28:31.370Z,35.83
2019-05-01T05:31:02.255Z,34.40
2019-05-01T05:33:33.791Z,31.03
2019-05-01T05:36:07.215Z,34.90
2019-05-01T05:38:58.085Z,34.60
2019-05-01T05:41:28.326Z,27.67
2019-05-01T05:43:58.155Z,35.17
2019-05-01T05:46:28.673Z,29.30
2019-05-01T05:48:58.869Z,29.10
2019-05-01T05:51:48.378Z,31.90
2019-05-01T05:54:43.766Z,31.37
2019-05-01T05:57:29.813Z,31.20
2019-05-01T06:00:09.913Z,31.00
2019-05-01T06:03:05.834Z,35.60
2019-05-01T06:06:08.990Z,31.13
2019-05-01T06:08:43.545Z,30.07
2019-05-01T06:11:35.503Z,35.93
2019-05-01T06:14:14.381Z,36.03
2019-05-01T06:16:59.831Z,35.17
2019-05-01T06:19:45.800Z,33.23
2019-05-01T06:22:32.319Z,33.53
2019-05-01T06:25:24.401Z,35.40
2019-05-01T06:27:52.618Z,36.70
2019-05-01T06:30:22.062Z,31.13
2019-05-01T06:32:51.572Z,37.03
2019-05-01T06:35:20.873Z,38.37
2019-05-01T06:38:03.647Z,35.50
2019-05-01T06:40:39.680Z,34.80
2019-05-01T06:43:20.264Z,34.00
2019-05-01T06:45:54.702Z,33.83
2019-05-01T06:48:27.878Z,34.87
2019-05-01T06:51:12.993Z,31.30
2019-05-01T06:53:41.540Z,29.90
2019-05-01T06:56:11.448Z,31.23
2019-05-01T06:58:41.240Z,30.73
2019-05-01T07:01:13.711Z,29.53
2019-05-01T07:03:46.953Z,30.77
2019-05-01T07:06:16.173Z,29.97
2019-05-01T07:08:46.109Z,28.80
2019-05-01T07:11:16.717Z,31.83
2019-05-01T07:13:51.715Z,26.93
2019-05-01T07:16:24.139Z,33.33
2019-05-01T07:18:57.963Z,28.00
2019-05-01T07:21:32.515Z,26.37
2019-05-01T07:24:00.067Z,32.10
2019-05-01T07:26:30.620Z,29.70
2019-05-01T07:29:06.135Z,27.70
2019-05-01T07:31:34.374Z,29.77
2019-05-01T07:34:16.000Z,30.87
2019-05-01T07:36:35.562Z,29.70
2019-05-01T07:39:09.794Z,33.23
2019-05-01T07:41:38.907Z,27.57
2019-05-01T07:44:30.002Z,29.03
2019-05-01T07:47:15.362Z,30.60
2019-05-01T07:49:55.350Z,28.93
2019-05-01T07:52:25.577Z,32.30
2019-05-01T07:54:56.321Z,31.80
2019-05-01T07:57:26.355Z,26.20
2019-05-01T07:59:58.376Z,25.67
2019-05-01T08:02:31.245Z,28.43
2019-05-01T08:05:00.669Z,28.50
2019-05-01T08:07:32.392Z,29.03
2019-05-01T08:10:07.803Z,25.67
2019-05-01T08:12:37.725Z,23.17
2019-05-01T08:15:08.879Z,26.47
2019-05-01T08:17:43.257Z,25.30
2019-05-01T08:20:37.751Z,28.30
2019-05-01T08:23:07.775Z,24.43
2019-05-01T08:25:39.099Z,27.17
2019-05-01T08:28:17.715Z,29.30
2019-05-01T08:31:09.013Z,26.37
2019-05-01T08:33:57.704Z,24.67
2019-05-01T08:36:27.891Z,26.70
2019-05-01T08:38:57.307Z,28.80
2019-05-01T08:41:27.074Z,22.47
2019-05-01T08:43:57.729Z,26.30
2019-05-01T08:46:51.043Z,26.13
2019-05-01T08:49:24.971Z,24.60
2019-05-01T08:51:57.076Z,27.17
2019-05-01T08:54:29.057Z,30.07
2019-05-01T08:56:59.838Z,27.67
2019-05-01T08:59:29.638Z,22.70
2019-05-01T09:02:09.110Z,22.00
2019-05-01T09:04:32.428Z,20.80
2019-05-01T09:07:02.790Z,25.03
2019-05-01T09:09:33.441Z,24.00
2019-05-01T09:12:06.947Z,22.73
2019-05-01T09:14:38.017Z,20.53
2019-05-01T09:17:07.877Z,21.93
2019-05-01T09:19:37.233Z,20.77
2019-05-01T09:22:07.905Z,19.33
2019-05-01T09:24:37.399Z,21.03
2019-05-01T09:27:29.450Z,23.17
2019-05-01T09:29:56.535Z,25.93
2019-05-01T09:32:26.266Z,26.80
2019-05-01T09:34:58.338Z,24.60
2019-05-01T09:37:27.416Z,23.77
2019-05-01T09:39:57.169Z,23.77
2019-05-01T09:42:27.626Z,24.57
2019-05-01T09:44:58.089Z,26.17
2019-05-01T09:47:28.270Z,33.13
2019-05-01T09:49:57.958Z,22.23
2019-05-01T09:52:46.453Z,20.70
2019-05-01T09:55:31.006Z,24.17
2019-05-01T09:58:02.923Z,21.23
2019-05-01T10:00:38.561Z,20.97
2019-05-01T10:03:13.160Z,23.60
2019-05-01T10:05:44.296Z,25.77
2019-05-01T10:08:13.791Z,24.83
2019-05-01T10:10:43.512Z,22.50
2019-05-01T10:13:17.394Z,25.50
2019-05-01T10:15:45.907Z,21.03
2019-05-01T10:18:15.982Z,23.00
2019-05-01T10:20:47.876Z,22.33
2019-05-01T10:23:17.192Z,20.70
2019-05-01T10:25:51.162Z,18.17
2019-05-01T10:28:50.109Z,22.53
2019-05-01T10:31:21.582Z,19.53
2019-05-01T10:33:52.678Z,21.00
2019-05-01T10:36:43.659Z,22.83
2019-05-01T10:39:19.696Z,18.27
2019-05-01T10:41:50.671Z,19.93
2019-05-01T10:44:21.162Z,18.23
2019-05-01T10:46:51.187Z,18.40
2019-05-01T10:49:20.512Z,21.43
2019-05-01T10:51:51.107Z,18.73
2019-05-01T10:54:20.644Z,17.87
2019-05-01T10:56:52.191Z,17.63
2019-05-01T10:59:22.819Z,22.70
2019-05-01T11:01:55.926Z,19.80
2019-05-01T11:04:26.242Z,18.03
2019-05-01T11:06:56.296Z,22.00
2019-05-01T11:09:26.386Z,19.33
2019-05-01T11:11:56.099Z,16.63
2019-05-01T11:14:26.697Z,18.33
2019-05-01T11:16:58.517Z,18.37
2019-05-01T11:19:30.086Z,20.37
2019-05-01T11:21:59.566Z,17.60
2019-05-01T11:24:29.730Z,15.87
2019-05-01T11:26:59.541Z,19.67
2019-05-01T11:29:29.306Z,21.20
2019-05-01T11:32:18.798Z,15.50
2019-05-01T11:35:07.402Z,22.77
2019-05-01T11:37:52.128Z,15.83
2019-05-01T11:40:40.499Z,17.50
2019-05-01T11:43:10.601Z,18.40
2019-05-01T11:45:44.199Z,20.43
2019-05-01T11:48:13.985Z,18.43
2019-05-01T11:50:43.912Z,14.93
2019-05-01T11:53:13.491Z,14.73
2019-05-01T11:55:43.615Z,14.00
2019-05-01T11:58:13.575Z,12.97
2019-05-01T12:00:47.778Z,19.47
2019-05-01T12:03:17.488Z,19.57
2019-05-01T12:05:47.500Z,22.40
2019-05-01T12:08:17.178Z,16.77
2019-05-01T12:10:46.527Z,16.53
2019-05-01T12:13:16.282Z,18.77
2019-05-01T12:15:48.463Z,19.13
2019-05-01T12:18:18.258Z,19.80
2019-05-01T12:20:49.856Z,16.97
2019-05-01T12:23:19.917Z,15.10
2019-05-01T12:25:49.674Z,19.40
2019-05-01T12:28:19.766Z,18.10
2019-05-01T12:30:49.410Z,19.77
2019-05-01T12:33:19.510Z,16.50
2019-05-01T12:35:51.406Z,16.50
2019-05-01T12:38:21.115Z,16.80
2019-05-01T12:41:08.150Z,18.63
2019-05-01T12:43:40.223Z,13.60
2019-05-01T12:46:11.797Z,21.33
2019-05-01T12:48:41.628Z,18.23
2019-05-01T12:51:11.315Z,19.77
2019-05-01T12:53:58.303Z,20.17
2019-05-01T12:56:36.079Z,14.00
2019-05-01T12:59:06.356Z,17.37
2019-05-01T13:01:36.701Z,20.23
2019-05-01T13:04:07.550Z,15.83
2019-05-01T13:06:48.944Z,15.57
2019-05-01T13:09:09.329Z,14.43
2019-05-01T13:11:39.464Z,22.70
2019-05-01T13:14:09.171Z,17.23
2019-05-01T13:16:38.701Z,14.43
2019-05-01T13:19:08.379Z,14.27
2019-05-01T13:21:37.734Z,17.90
2019-05-01T13:24:07.766Z,15.97
2019-05-01T13:26:42.223Z,17.03
2019-05-01T13:29:21.469Z,14.87
2019-05-01T13:32:18.766Z,17.10
2019-05-01T13:34:48.742Z,13.23
2019-05-01T13:37:18.134Z,16.83
2019-05-01T13:39:47.458Z,12.33
2019-05-01T13:42:18.750Z,20.13
2019-05-01T13:44:48.142Z,18.87
2019-05-01T13:47:18.207Z,22.93
2019-05-01T13:49:47.561Z,17.50
2019-05-01T13:52:17.347Z,13.43
2019-05-01T13:54:47.403Z,12.33
2019-05-01T13:57:20.688Z,21.23
2019-05-01T13:59:51.259Z,15.37
2019-05-01T14:02:20.607Z,12.83
2019-05-01T14:04:50.375Z,14.73
2019-05-01T14:07:20.286Z,18.33
2019-05-01T14:09:49.998Z,14.83
2019-05-01T14:12:20.354Z,19.17
2019-05-01T14:14:49.667Z,16.10
2019-05-01T14:17:19.040Z,15.20
2019-05-01T14:19:57.182Z,14.23
2019-05-01T14:22:37.165Z,13.37
2019-05-01T14:25:07.711Z,16.47
2019-05-01T14:27:37.798Z,16.67
2019-05-01T14:30:09.756Z,11.90
2019-05-01T14:32:39.838Z,14.80
2019-05-01T14:35:11.510Z,18.43
2019-05-01T14:37:40.809Z,14.40
2019-05-01T14:40:11.394Z,14.07
2019-05-01T14:42:41.445Z,17.63
2019-05-01T14:45:11.076Z,13.87
2019-05-01T14:47:40.835Z,15.67
2019-05-01T14:50:10.754Z,13.23
2019-05-01T14:52:41.122Z,14.10
2019-05-01T14:55:10.950Z,16.50
2019-05-01T14:57:40.811Z,16.30
2019-05-01T15:00:10.857Z,16.07
2019-05-01T15:02:40.358Z,17.70
2019-05-01T15:05:12.108Z,15.13
2019-05-01T15:07:43.583Z,16.13
2019-05-01T15:10:13.074Z,13.73
2019-05-01T15:12:44.430Z,17.90
2019-05-01T15:15:30.884Z,16.00
2019-05-01T15:18:10.536Z,16.00
2019-05-01T15:20:40.248Z,14.03
2019-05-01T15:23:12.595Z,16.70
2019-05-01T15:25:42.284Z,13.53
2019-05-01T15:28:11.626Z,16.73
2019-05-01T15:30:42.057Z,14.77
2019-05-01T15:33:11.385Z,16.57
2019-05-01T15:35:41.851Z,17.07
2019-05-01T15:38:11.306Z,22.03
2019-05-01T15:40:48.410Z,16.87
2019-05-01T15:43:31.887Z,17.23
2019-05-01T15:46:01.604Z,16.90
2019-05-01T15:48:31.667Z,13.67
2019-05-01T15:51:02.306Z,17.13
2019-05-01T15:53:31.992Z,13.53
2019-05-01T15:56:04.537Z,10.90
2019-05-01T15:58:36.774Z,12.20
2019-05-01T16:01:06.239Z,12.43
2019-05-01T16:03:36.032Z,14.17
2019-05-01T16:06:08.970Z,13.20
2019-05-01T16:08:40.688Z,15.70
2019-05-01T16:11:17.954Z,15.17
2019-05-01T16:13:48.007Z,13.40
2019-05-01T16:16:18.499Z,14.47
2019-05-01T16:18:47.981Z,14.07
2019-05-01T16:21:18.063Z,14.43
2019-05-01T16:23:47.373Z,13.17
2019-05-01T16:26:16.703Z,15.20
2019-05-01T16:28:46.959Z,15.60
2019-05-01T16:31:16.247Z,13.13
2019-05-01T16:33:45.930Z,19.90
2019-05-01T16:36:16.557Z,14.13
2019-05-01T16:38:57.821Z,15.07
2019-05-01T16:41:28.198Z,16.70
2019-05-01T16:43:58.747Z,14.53
2019-05-01T16:46:29.309Z,16.63
2019-05-01T16:48:59.410Z,23.47
2019-05-01T16:51:28.762Z,18.43
2019-05-01T16:53:59.247Z,16.33
2019-05-01T16:56:29.040Z,14.20
2019-05-01T16:58:59.119Z,18.30
2019-05-01T17:01:53.538Z,14.67
2019-05-01T17:04:35.253Z,13.70
2019-05-01T17:07:22.006Z,16.77
2019-05-01T17:10:09.602Z,17.27
2019-05-01T17:12:47.149Z,16.20
2019-05-01T17:15:19.958Z,13.73
2019-05-01T17:17:49.411Z,16.37
2019-05-01T17:20:20.799Z,14.00
2019-05-01T17:22:51.914Z,14.70
2019-05-01T17:25:22.869Z,13.13
2019-05-01T17:27:52.838Z,18.73
2019-05-01T17:30:38.878Z,25.27
2019-05-01T17:33:08.258Z,16.87
2019-05-01T17:35:41.661Z,16.10
2019-05-01T17:38:09.747Z,12.37
2019-05-01T17:40:39.632Z,15.20
2019-05-01T17:43:13.436Z,14.47
2019-05-01T17:45:40.280Z,14.70
2019-05-01T17:48:10.775Z,13.63
2019-05-01T17:50:40.321Z,12.80
2019-05-01T17:53:10.183Z,9.97
2019-05-01T17:55:40.583Z,12.07
2019-05-01T17:58:10.323Z,12.37
2019-05-01T18:01:16.036Z,14.67
2019-05-01T18:04:10.288Z,14.00
2019-05-01T18:06:46.427Z,13.67
2019-05-01T18:09:17.766Z,19.00
2019-05-01T18:11:52.263Z,12.73
2019-05-01T18:14:19.939Z,15.67
2019-05-01T18:16:49.949Z,18.13
2019-05-01T18:19:19.962Z,16.60
2019-05-01T18:21:56.679Z,13.07
2019-05-01T18:24:58.413Z,14.30
2019-05-01T18:27:49.827Z,11.03
2019-05-01T18:30:23.486Z,11.33
2019-05-01T18:32:52.873Z,11.33
2019-05-01T18:35:24.142Z,11.70
2019-05-01T18:38:06.456Z,13.47
2019-05-01T18:40:53.023Z,12.20
2019-05-01T18:43:27.071Z,14.00
2019-05-01T18:45:59.733Z,13.40
2019-05-01T18:48:30.086Z,15.03
2019-05-01T18:51:00.178Z,16.33
2019-05-01T18:53:30.600Z,16.33
2019-05-01T18:56:05.155Z,14.97
2019-05-01T18:58:32.341Z,16.43
2019-05-01T19:01:04.126Z,12.67
2019-05-01T19:03:37.205Z,14.90
2019-05-01T19:06:05.842Z,12.23
2019-05-01T19:08:35.923Z,12.17
2019-05-01T19:11:12.323Z,16.13
2019-05-01T19:13:37.335Z,17.43
2019-05-01T19:16:08.038Z,14.03
2019-05-01T19:18:40.596Z,18.77
2019-05-01T19:21:11.112Z,16.73
2019-05-01T19:23:40.758Z,18.80
2019-05-01T19:26:12.312Z,15.00
2019-05-01T19:28:42.303Z,15.87
2019-05-01T19:31:12.785Z,20.97
2019-05-01T19:33:42.579Z,15.63
2019-05-01T19:36:12.983Z,12.57
2019-05-01T19:38:43.050Z,12.93
2019-05-01T19:41:14.312Z,14.87
2019-05-01T19:43:44.240Z,12.87
2019-05-01T19:46:16.124Z,13.27
2019-05-01T19:48:50.821Z,14.87
2019-05-01T19:51:24.129Z,28.70
2019-05-01T19:53:53.455Z,12.80
2019-05-01T19:56:23.428Z,14.37
2019-05-01T19:58:53.779Z,11.47
2019-05-01T20:01:23.052Z,16.77
2019-05-01T20:03:53.521Z,20.60
2019-05-01T20:06:23.661Z,14.80
2019-05-01T20:08:53.706Z,15.77
2019-05-01T20:11:24.283Z,21.23
2019-05-01T20:13:54.362Z,18.10
2019-05-01T20:16:23.822Z,19.40
2019-05-01T20:18:53.119Z,15.43
2019-05-01T20:21:22.969Z,15.57
2019-05-01T20:23:53.437Z,21.17
2019-05-01T20:26:26.901Z,16.27
2019-05-01T20:28:54.617Z,15.93
2019-05-01T20:31:27.637Z,14.53
2019-05-01T20:33:57.372Z,16.13
2019-05-01T20:36:27.437Z,15.57
2019-05-01T20:38:57.105Z,18.30
2019-05-01T20:41:27.125Z,16.27
2019-05-01T20:43:56.426Z,20.10
2019-05-01T20:46:28.048Z,23.40
2019-05-01T20:49:01.486Z,26.57
2019-05-01T20:51:28.901Z,25.50
2019-05-01T20:53:58.667Z,31.00
2019-05-01T20:56:59.286Z,29.83
2019-05-01T20:59:28.932Z,34.50
2019-05-01T21:01:59.622Z,31.90
2019-05-01T21:04:48.897Z,33.93
2019-05-01T21:07:30.199Z,33.33
2019-05-01T21:10:01.104Z,35.67
2019-05-01T21:12:31.535Z,33.10
2019-05-01T21:15:00.793Z,31.67
2019-05-01T21:17:30.078Z,36.77
2019-05-01T21:19:59.615Z,35.03
2019-05-01T21:22:29.342Z,40.53
2019-05-01T21:24:59.322Z,38.17
2019-05-01T21:27:28.679Z,36.83
2019-05-01T21:29:58.365Z,36.30
2019-05-01T21:32:28.176Z,33.87
2019-05-01T21:34:57.547Z,34.87
2019-05-01T21:37:27.222Z,40.30
2019-05-01T21:39:57.259Z,39.03
2019-05-01T21:42:27.782Z,36.97
2019-05-01T21:44:57.516Z,35.63
2019-05-01T21:47:27.638Z,34.40
2019-05-01T21:49:57.322Z,35.80
2019-05-01T21:52:27.558Z,40.77
2019-05-01T21:54:57.094Z,39.40
2019-05-01T21:57:29.585Z,39.73
2019-05-01T21:59:57.951Z,39.50
2019-05-01T22:02:27.508Z,36.17
2019-05-01T22:04:56.849Z,36.20
2019-05-01T22:07:27.745Z,37.93
2019-05-01T22:09:57.255Z,42.27
2019-05-01T22:12:27.815Z,44.83
2019-05-01T22:15:06.274Z,36.30
2019-05-01T22:17:59.866Z,38.93
2019-05-01T22:20:36.173Z,36.10
2019-05-01T22:23:09.818Z,43.63
2019-05-01T22:25:45.776Z,42.73
2019-05-01T22:28:26.354Z,39.17
2019-05-01T22:31:21.849Z,41.83
2019-05-01T22:33:53.971Z,45.47
2019-05-01T22:36:24.298Z,50.77
2019-05-01T22:38:54.144Z,53.20
2019-05-01T22:41:24.347Z,51.10
2019-05-01T22:43:54.035Z,49.53
2019-05-01T22:46:28.366Z,50.40
2019-05-01T22:48:57.994Z,50.20
2019-05-01T22:51:27.262Z,49.80
2019-05-01T22:53:59.423Z,55.33
2019-05-01T22:56:29.030Z,48.47
2019-05-01T22:58:58.345Z,56.13
2019-05-01T23:01:28.722Z,58.30
2019-05-01T23:04:00.867Z,55.43
2019-05-01T23:06:30.534Z,59.57
2019-05-01T23:09:00.190Z,61.17
2019-05-01T23:11:32.338Z,58.83
2019-05-01T23:14:02.420Z,63.10
2019-05-01T23:16:37.021Z,60.23
2019-05-01T23:19:07.412Z,62.37
2019-05-01T23:21:36.657Z,58.10
2019-05-01T23:24:06.063Z,59.10
2019-05-01T23:26:36.102Z,67.83
2019-05-01T23:29:06.226Z,67.77
2019-05-01T23:31:36.017Z,60.77
2019-05-01T23:34:05.829Z,66.97
2019-05-01T23:36:35.823Z,72.87
2019-05-01T23:39:06.110Z,75.17
2019-05-01T23:41:45.775Z,65.30
2019-05-01T23:44:07.911Z,70.37
2019-05-01T23:46:37.615Z,76.23
2019-05-01T23:49:07.561Z,74.73
2019-05-01T23:51:36.829Z,64.27
2019-05-01T23:54:06.732Z,61.57
2019-05-01T23:56:38.194Z,89.27
2019-05-01T23:59:07.859Z,72.33
